sensor_id;sensor_type;location;lat;lon;timestamp;pressure;altitude;pressure_sealevel;temperature;humidity
39949;BME280;29070;48.102;-1.652;2023-04-28T00:03:30;101058.34;;;15.53;86.96
39949;BME280;29070;48.102;-1.652;2023-04-28T00:08:30;101049.38;;;15.54;86.77
39949;BME280;29070;48.102;-1.652;2023-04-28T00:13:31;101049.47;;;15.47;86.83
39949;BME280;29070;48.102;-1.652;2023-04-28T00:18:31;101043.13;;;15.48;86.96
39949;BME280;29070;48.102;-1.652;2023-04-28T00:23:32;101042.13;;;15.49;86.84
39949;BME280;29070;48.102;-1.652;2023-04-28T00:28:33;101039.25;;;15.51;86.98
39949;BME280;29070;48.102;-1.652;2023-04-28T00:33:33;101031.53;;;15.49;86.84
39949;BME280;29070;48.102;-1.652;2023-04-28T00:38:33;101028.88;;;15.49;86.97
39949;BME280;29070;48.102;-1.652;2023-04-28T00:43:44;101026.25;;;15.49;86.99
39949;BME280;29070;48.102;-1.652;2023-04-28T00:48:45;101028.88;;;15.49;87.20
39949;BME280;29070;48.102;-1.652;2023-04-28T00:53:45;101029.91;;;15.48;87.16
39949;BME280;29070;48.102;-1.652;2023-04-28T00:58:46;101023.59;;;15.49;87.23
39949;BME280;29070;48.102;-1.652;2023-04-28T01:03:47;101018.09;;;15.51;87.31
39949;BME280;29070;48.102;-1.652;2023-04-28T01:08:48;101025.66;;;15.47;87.35
39949;BME280;29070;48.102;-1.652;2023-04-28T01:13:50;101028.31;;;15.47;87.35
39949;BME280;29070;48.102;-1.652;2023-04-28T01:18:51;101016.09;;;15.46;87.35
39949;BME280;29070;48.102;-1.652;2023-04-28T01:23:51;101025.03;;;15.45;87.58
39949;BME280;29070;48.102;-1.652;2023-04-28T01:28:52;101017.56;;;15.42;87.45
39949;BME280;29070;48.102;-1.652;2023-04-28T01:33:52;101023.44;;;15.44;87.61
39949;BME280;29070;48.102;-1.652;2023-04-28T01:38:53;101017.72;;;15.47;87.65
39949;BME280;29070;48.102;-1.652;2023-04-28T01:43:54;101024.59;;;15.48;87.62
39949;BME280;29070;48.102;-1.652;2023-04-28T01:48:54;101026.25;;;15.49;87.73
39949;BME280;29070;48.102;-1.652;2023-04-28T01:53:54;101022.41;;;15.45;87.73
39949;BME280;29070;48.102;-1.652;2023-04-28T01:58:55;101023.59;;;15.49;87.81
39949;BME280;29070;48.102;-1.652;2023-04-28T02:03:55;101033.59;;;15.47;87.47
39949;BME280;29070;48.102;-1.652;2023-04-28T02:08:55;101036.25;;;15.47;87.67
39949;BME280;29070;48.102;-1.652;2023-04-28T02:13:56;101029.31;;;15.46;87.63
39949;BME280;29070;48.102;-1.652;2023-04-28T02:18:56;101035.63;;;15.45;88.06
39949;BME280;29070;48.102;-1.652;2023-04-28T02:23:56;101040.13;;;15.44;87.97
39949;BME280;29070;48.102;-1.652;2023-04-28T02:28:57;101036.66;;;15.44;88.02
39949;BME280;29070;48.102;-1.652;2023-04-28T02:33:57;101029.97;;;15.41;88.31
39949;BME280;29070;48.102;-1.652;2023-04-28T02:38:57;101023.28;;;15.39;88.24
39949;BME280;29070;48.102;-1.652;2023-04-28T02:43:58;101022.69;;;15.37;88.08
39949;BME280;29070;48.102;-1.652;2023-04-28T02:48:58;101031.88;;;15.34;88.36
39949;BME280;29070;48.102;-1.652;2023-04-28T02:53:58;101018.63;;;15.34;88.36
39949;BME280;29070;48.102;-1.652;2023-04-28T02:58:59;101020.44;;;15.40;88.41
39949;BME280;29070;48.102;-1.652;2023-04-28T03:03:59;101022.69;;;15.37;88.40
39949;BME280;29070;48.102;-1.652;2023-04-28T03:08:59;101020.47;;;15.34;88.48
39949;BME280;29070;48.102;-1.652;2023-04-28T03:14:00;101019.00;;;15.38;88.24
39949;BME280;29070;48.102;-1.652;2023-04-28T03:19:00;101018.22;;;15.37;88.28
39949;BME280;29070;48.102;-1.652;2023-04-28T03:24:01;101016.38;;;15.38;88.31
39949;BME280;29070;48.102;-1.652;2023-04-28T03:29:01;101021.81;;;15.43;88.34
39949;BME280;29070;48.102;-1.652;2023-04-28T03:34:01;101019.16;;;15.43;88.19
39949;BME280;29070;48.102;-1.652;2023-04-28T03:39:03;101023.44;;;15.44;88.41
39949;BME280;29070;48.102;-1.652;2023-04-28T03:44:03;101007.56;;;15.44;88.26
39949;BME280;29070;48.102;-1.652;2023-04-28T03:49:04;101023.88;;;15.41;88.49
39949;BME280;29070;48.102;-1.652;2023-04-28T03:54:04;101027.09;;;15.43;88.40
39949;BME280;29070;48.102;-1.652;2023-04-28T03:59:04;101020.78;;;15.44;88.32
39949;BME280;29070;48.102;-1.652;2023-04-28T04:04:05;101024.31;;;15.38;88.26
39949;BME280;29070;48.102;-1.652;2023-04-28T04:09:05;101032.84;;;15.40;88.44
39949;BME280;29070;48.102;-1.652;2023-04-28T04:14:06;101041.38;;;15.42;88.47
39949;BME280;29070;48.102;-1.652;2023-04-28T04:19:06;101033.66;;;15.40;88.69
39949;BME280;29070;48.102;-1.652;2023-04-28T04:24:07;101028.56;;;15.39;88.72
39949;BME280;29070;48.102;-1.652;2023-04-28T04:29:07;101020.66;;;15.39;88.48
39949;BME280;29070;48.102;-1.652;2023-04-28T04:34:07;101038.00;;;15.35;88.83
39949;BME280;29070;48.102;-1.652;2023-04-28T04:39:08;101041.44;;;15.35;88.76
39949;BME280;29070;48.102;-1.652;2023-04-28T04:44:08;101021.91;;;15.36;88.80
39949;BME280;29070;48.102;-1.652;2023-04-28T04:49:09;101030.84;;;15.35;88.73
39949;BME280;29070;48.102;-1.652;2023-04-28T04:54:09;101030.84;;;15.35;88.81
39949;BME280;29070;48.102;-1.652;2023-04-28T04:59:09;101031.28;;;15.32;88.74
39949;BME280;29070;48.102;-1.652;2023-04-28T05:04:10;101026.34;;;15.36;88.54
39949;BME280;29070;48.102;-1.652;2023-04-28T05:09:10;101034.88;;;15.38;88.54
39949;BME280;29070;48.102;-1.652;2023-04-28T05:14:11;101044.59;;;15.44;88.58
39949;BME280;29070;48.102;-1.652;2023-04-28T05:19:11;101060.47;;;15.44;88.76
39949;BME280;29070;48.102;-1.652;2023-04-28T05:24:13;101055.19;;;15.44;88.73
39949;BME280;29070;48.102;-1.652;2023-04-28T05:29:13;101063.28;;;15.49;88.74
39949;BME280;29070;48.102;-1.652;2023-04-28T05:34:14;101054.28;;;15.50;88.84
39949;BME280;29070;48.102;-1.652;2023-04-28T05:39:14;101066.13;;;15.48;88.67
39949;BME280;29070;48.102;-1.652;2023-04-28T05:44:14;101076.28;;;15.51;88.93
39949;BME280;29070;48.102;-1.652;2023-04-28T05:49:15;101079.91;;;15.56;89.08
39949;BME280;29070;48.102;-1.652;2023-04-28T05:54:15;101072.09;;;15.61;88.96
39949;BME280;29070;48.102;-1.652;2023-04-28T05:59:16;101083.06;;;15.65;88.98
39949;BME280;29070;48.102;-1.652;2023-04-28T06:04:17;101078.56;;;15.66;88.93
39949;BME280;29070;48.102;-1.652;2023-04-28T06:09:17;101080.41;;;15.65;88.95
39949;BME280;29070;48.102;-1.652;2023-04-28T06:14:18;101088.78;;;15.62;88.92
39949;BME280;29070;48.102;-1.652;2023-04-28T06:19:18;101097.75;;;15.61;88.92
39949;BME280;29070;48.102;-1.652;2023-04-28T06:24:18;101097.09;;;15.66;88.96
39949;BME280;29070;48.102;-1.652;2023-04-28T06:29:19;101103.88;;;15.61;88.97
39949;BME280;29070;48.102;-1.652;2023-04-28T06:34:19;101120.31;;;15.63;88.92
39949;BME280;29070;48.102;-1.652;2023-04-28T06:39:20;101121.66;;;15.73;88.79
39949;BME280;29070;48.102;-1.652;2023-04-28T06:44:21;101126.94;;;15.73;88.75
39949;BME280;29070;48.102;-1.652;2023-04-28T06:49:21;101131.38;;;15.79;88.93
39949;BME280;29070;48.102;-1.652;2023-04-28T06:54:22;101126.09;;;15.79;88.69
39949;BME280;29070;48.102;-1.652;2023-04-28T06:59:22;101126.91;;;15.79;88.76
39949;BME280;29070;48.102;-1.652;2023-04-28T07:04:23;101129.34;;;15.81;88.80
39949;BME280;29070;48.102;-1.652;2023-04-28T07:09:24;101140.69;;;15.88;88.71
39949;BME280;29070;48.102;-1.652;2023-04-28T07:14:24;101128.63;;;15.92;88.66
39949;BME280;29070;48.102;-1.652;2023-04-28T07:19:24;101133.75;;;16.06;88.78
39949;BME280;29070;48.102;-1.652;2023-04-28T07:24:25;101133.25;;;16.15;88.84
39949;BME280;29070;48.102;-1.652;2023-04-28T07:29:26;101138.44;;;16.22;88.76
39949;BME280;29070;48.102;-1.652;2023-04-28T07:34:33;101138.69;;;16.20;88.23
39949;BME280;29070;48.102;-1.652;2023-04-28T07:39:34;101136.53;;;16.29;88.31
39949;BME280;29070;48.102;-1.652;2023-04-28T07:44:35;101137.00;;;16.26;88.31
39949;BME280;29070;48.102;-1.652;2023-04-28T07:49:35;101143.59;;;16.35;88.22
39949;BME280;29070;48.102;-1.652;2023-04-28T07:54:36;101145.81;;;16.38;87.83
39949;BME280;29070;48.102;-1.652;2023-04-28T07:59:36;101162.06;;;16.42;87.86
39949;BME280;29070;48.102;-1.652;2023-04-28T08:04:36;101164.63;;;16.49;87.93
39949;BME280;29070;48.102;-1.652;2023-04-28T08:09:37;101165.81;;;16.53;87.54
39949;BME280;29070;48.102;-1.652;2023-04-28T08:14:39;101170.88;;;16.54;87.10
39949;BME280;29070;48.102;-1.652;2023-04-28T08:19:39;101172.41;;;16.62;87.04
39949;BME280;29070;48.102;-1.652;2023-04-28T08:24:39;101176.22;;;16.66;86.87
39949;BME280;29070;48.102;-1.652;2023-04-28T08:29:40;101167.28;;;16.79;86.81
39949;BME280;29070;48.102;-1.652;2023-04-28T08:34:40;101169.59;;;17.06;87.01
39949;BME280;29070;48.102;-1.652;2023-04-28T08:39:41;101177.94;;;17.33;86.43
39949;BME280;29070;48.102;-1.652;2023-04-28T08:44:41;101186.72;;;17.33;85.31
39949;BME280;29070;48.102;-1.652;2023-04-28T08:49:42;101191.00;;;17.46;85.69
39949;BME280;29070;48.102;-1.652;2023-04-28T08:54:46;101193.66;;;17.46;85.03
39949;BME280;29070;48.102;-1.652;2023-04-28T08:59:48;101202.44;;;17.59;84.80
39949;BME280;29070;48.102;-1.652;2023-04-28T09:04:49;101207.03;;;17.63;84.42
39949;BME280;29070;48.102;-1.652;2023-04-28T09:09:49;101213.63;;;17.61;83.89
39949;BME280;29070;48.102;-1.652;2023-04-28T09:14:56;101220.09;;;17.53;83.26
39949;BME280;29070;48.102;-1.652;2023-04-28T09:19:57;101232.09;;;17.44;82.59
39949;BME280;29070;48.102;-1.652;2023-04-28T09:25:09;101227.94;;;17.48;82.45
39949;BME280;29070;48.102;-1.652;2023-04-28T09:30:10;101230.00;;;17.46;81.92
39949;BME280;29070;48.102;-1.652;2023-04-28T09:35:11;101232.66;;;17.58;82.22
39949;BME280;29070;48.102;-1.652;2023-04-28T09:40:11;101238.22;;;17.68;82.05
39949;BME280;29070;48.102;-1.652;2023-04-28T09:45:13;101235.47;;;17.75;81.37
39949;BME280;29070;48.102;-1.652;2023-04-28T09:50:15;101233.44;;;17.88;81.31
39949;BME280;29070;48.102;-1.652;2023-04-28T09:55:16;101242.31;;;18.06;80.96
39949;BME280;29070;48.102;-1.652;2023-04-28T10:00:17;101224.97;;;18.15;80.24
39949;BME280;29070;48.102;-1.652;2023-04-28T10:05:20;101220.94;;;18.24;79.84
39949;BME280;29070;48.102;-1.652;2023-04-28T10:10:21;101231.75;;;18.35;79.35
39949;BME280;29070;48.102;-1.652;2023-04-28T10:15:22;101245.28;;;18.33;78.77
39949;BME280;29070;48.102;-1.652;2023-04-28T10:20:22;101251.16;;;18.47;78.84
39949;BME280;29070;48.102;-1.652;2023-04-28T10:25:31;101246.06;;;18.57;78.37
39949;BME280;29070;48.102;-1.652;2023-04-28T10:30:33;101252.72;;;18.60;77.41
39949;BME280;29070;48.102;-1.652;2023-04-28T10:56:05;101255.59;;;18.70;76.64
39949;BME280;29070;48.102;-1.652;2023-04-28T11:11:30;101252.47;;;18.85;75.71
39949;BME280;29070;48.102;-1.652;2023-04-28T11:16:47;101259.63;;;19.13;75.36
39949;BME280;29070;48.102;-1.652;2023-04-28T11:21:50;101253.06;;;19.33;75.60
39949;BME280;29070;48.102;-1.652;2023-04-28T11:26:51;101253.41;;;19.53;74.91
39949;BME280;29070;48.102;-1.652;2023-04-28T11:31:52;101246.78;;;19.56;74.04
39949;BME280;29070;48.102;-1.652;2023-04-28T11:36:53;101245.88;;;19.67;73.09
39949;BME280;29070;48.102;-1.652;2023-04-28T11:41:54;101244.84;;;20.02;73.45
39949;BME280;29070;48.102;-1.652;2023-04-28T11:46:56;101233.34;;;20.18;72.45
39949;BME280;29070;48.102;-1.652;2023-04-28T11:52:09;101239.53;;;20.24;71.29
39949;BME280;29070;48.102;-1.652;2023-04-28T11:57:17;101243.53;;;20.05;70.98
39949;BME280;29070;48.102;-1.652;2023-04-28T12:02:26;101238.81;;;20.29;71.17
39949;BME280;29070;48.102;-1.652;2023-04-28T12:07:40;101242.34;;;20.34;70.50
39949;BME280;29070;48.102;-1.652;2023-04-28T12:12:41;101245.25;;;20.55;70.44
39949;BME280;29070;48.102;-1.652;2023-04-28T12:17:42;101239.34;;;20.97;70.16
39949;BME280;29070;48.102;-1.652;2023-04-28T12:22:44;101239.16;;;21.04;68.70
39949;BME280;29070;48.102;-1.652;2023-04-28T12:32:59;101247.81;;;21.16;68.31
39949;BME280;29070;48.102;-1.652;2023-04-28T12:38:00;101245.13;;;21.16;68.11
39949;BME280;29070;48.102;-1.652;2023-04-28T12:43:00;101264.47;;;21.28;67.87
39949;BME280;29070;48.102;-1.652;2023-04-28T12:48:00;101265.09;;;21.41;67.64
39949;BME280;29070;48.102;-1.652;2023-04-28T12:53:01;101254.38;;;21.36;66.80
39949;BME280;29070;48.102;-1.652;2023-04-28T12:58:01;101244.25;;;21.38;66.20
39949;BME280;29070;48.102;-1.652;2023-04-28T13:03:01;101255.59;;;21.50;66.80
39949;BME280;29070;48.102;-1.652;2023-04-28T13:08:02;101255.50;;;21.72;66.12
39949;BME280;29070;48.102;-1.652;2023-04-28T13:13:03;101254.94;;;21.70;65.19
39949;BME280;29070;48.102;-1.652;2023-04-28T13:18:04;101248.38;;;21.88;65.38
39949;BME280;29070;48.102;-1.652;2023-04-28T13:23:04;101248.31;;;21.78;64.98
39949;BME280;29070;48.102;-1.652;2023-04-28T13:28:05;101257.47;;;21.87;64.42
39949;BME280;29070;48.102;-1.652;2023-04-28T13:33:06;101247.34;;;21.94;64.05
39949;BME280;29070;48.102;-1.652;2023-04-28T13:38:06;101252.75;;;22.04;63.63
39949;BME280;29070;48.102;-1.652;2023-04-28T13:43:06;101253.63;;;22.15;63.37
39949;BME280;29070;48.102;-1.652;2023-04-28T13:48:07;101253.06;;;22.13;63.25
39949;BME280;29070;48.102;-1.652;2023-04-28T13:53:07;101253.56;;;22.05;62.92
39949;BME280;29070;48.102;-1.652;2023-04-28T13:58:09;101256.91;;;21.85;62.86
39949;BME280;29070;48.102;-1.652;2023-04-28T14:03:10;101255.28;;;21.79;62.95
39949;BME280;29070;48.102;-1.652;2023-04-28T14:08:10;101253.16;;;21.81;62.56
39949;BME280;29070;48.102;-1.652;2023-04-28T14:13:11;101261.81;;;21.98;63.21
39949;BME280;29070;48.102;-1.652;2023-04-28T14:18:12;101251.19;;;22.14;62.66
39949;BME280;29070;48.102;-1.652;2023-04-28T14:23:12;101259.66;;;22.48;62.92
39949;BME280;29070;48.102;-1.652;2023-04-28T14:28:14;101229.53;;;22.68;62.18
39949;BME280;29070;48.102;-1.652;2023-04-28T14:33:15;101236.75;;;22.73;61.93
39949;BME280;29070;48.102;-1.652;2023-04-28T14:38:15;101243.94;;;22.57;61.37
39949;BME280;29070;48.102;-1.652;2023-04-28T14:43:16;101244.81;;;22.88;62.14
39949;BME280;29070;48.102;-1.652;2023-04-28T14:48:16;101243.47;;;22.91;61.24
39949;BME280;29070;48.102;-1.652;2023-04-28T14:53:17;101241.31;;;22.72;61.20
39949;BME280;29070;48.102;-1.652;2023-04-28T14:58:17;101237.84;;;22.87;60.89
39949;BME280;29070;48.102;-1.652;2023-04-28T15:03:18;101232.25;;;22.99;60.74
39949;BME280;29070;48.102;-1.652;2023-04-28T15:08:18;101229.53;;;22.78;60.34
39949;BME280;29070;48.102;-1.652;2023-04-28T15:13:18;101226.88;;;22.73;60.45
39949;BME280;29070;48.102;-1.652;2023-04-28T15:18:19;101223.63;;;22.61;60.37
39949;BME280;29070;48.102;-1.652;2023-04-28T15:23:20;101229.50;;;22.58;60.31
39949;BME280;29070;48.102;-1.652;2023-04-28T15:28:20;101220.38;;;22.59;60.31
39949;BME280;29070;48.102;-1.652;2023-04-28T15:33:21;101215.31;;;22.52;59.69
39949;BME280;29070;48.102;-1.652;2023-04-28T15:38:21;101229.16;;;22.44;60.50
39949;BME280;29070;48.102;-1.652;2023-04-28T15:43:22;101233.91;;;22.26;60.42
39949;BME280;29070;48.102;-1.652;2023-04-28T15:48:22;101246.97;;;22.23;60.86
39949;BME280;29070;48.102;-1.652;2023-04-28T15:53:22;101251.19;;;22.14;60.83
39949;BME280;29070;48.102;-1.652;2023-04-28T15:58:24;101252.25;;;22.07;61.30
39949;BME280;29070;48.102;-1.652;2023-04-28T16:03:24;101257.81;;;22.01;61.02
39949;BME280;29070;48.102;-1.652;2023-04-28T16:08:25;101262.28;;;21.90;60.91
39949;BME280;29070;48.102;-1.652;2023-04-28T16:13:26;101262.16;;;21.69;61.15
39949;BME280;29070;48.102;-1.652;2023-04-28T16:18:27;101267.50;;;21.69;61.84
39949;BME280;29070;48.102;-1.652;2023-04-28T16:23:28;101263.97;;;21.64;62.12
39949;BME280;29070;48.102;-1.652;2023-04-28T16:28:28;101254.63;;;21.61;61.95
39949;BME280;29070;48.102;-1.652;2023-04-28T16:33:28;101268.66;;;21.46;62.29
39949;BME280;29070;48.102;-1.652;2023-04-28T16:38:29;101268.75;;;21.29;62.23
39949;BME280;29070;48.102;-1.652;2023-04-28T16:43:29;101271.88;;;21.21;62.46
39949;BME280;29070;48.102;-1.652;2023-04-28T16:48:31;101275.19;;;21.06;62.39
39949;BME280;29070;48.102;-1.652;2023-04-28T16:53:32;101281.56;;;20.78;62.86
39949;BME280;29070;48.102;-1.652;2023-04-28T16:58:32;101276.06;;;20.63;63.04
39949;BME280;29070;48.102;-1.652;2023-04-28T17:03:32;101286.41;;;20.42;63.05
39949;BME280;29070;48.102;-1.652;2023-04-28T17:08:33;101295.66;;;20.34;63.56
39949;BME280;29070;48.102;-1.652;2023-04-28T17:13:34;101309.91;;;20.23;63.76
39949;BME280;29070;48.102;-1.652;2023-04-28T17:18:34;101302.56;;;20.13;63.64
39949;BME280;29070;48.102;-1.652;2023-04-28T17:23:35;101319.63;;;19.95;64.09
39949;BME280;29070;48.102;-1.652;2023-04-28T17:28:36;101333.75;;;19.79;64.12
39949;BME280;29070;48.102;-1.652;2023-04-28T17:33:36;101327.13;;;19.53;64.13
39949;BME280;29070;48.102;-1.652;2023-04-28T17:38:37;101332.22;;;19.37;64.50
39949;BME280;29070;48.102;-1.652;2023-04-28T17:43:37;101344.53;;;19.27;64.50
39949;BME280;29070;48.102;-1.652;2023-04-28T17:48:38;101347.00;;;19.04;64.74
39949;BME280;29070;48.102;-1.652;2023-04-28T17:53:38;101358.38;;;18.88;64.95
39949;BME280;29070;48.102;-1.652;2023-04-28T17:58:40;101360.22;;;18.76;64.99
39949;BME280;29070;48.102;-1.652;2023-04-28T18:03:40;101356.91;;;18.57;64.98
39949;BME280;29070;48.102;-1.652;2023-04-28T18:08:41;101360.72;;;18.37;64.99
39949;BME280;29070;48.102;-1.652;2023-04-28T18:13:42;101366.75;;;18.21;65.38
39949;BME280;29070;48.102;-1.652;2023-04-28T18:18:42;101367.75;;;18.08;65.80
39949;BME280;29070;48.102;-1.652;2023-04-28T18:23:43;101376.72;;;17.95;66.09
39949;BME280;29070;48.102;-1.652;2023-04-28T18:28:46;101369.97;;;17.81;65.99
39949;BME280;29070;48.102;-1.652;2023-04-28T18:33:47;101373.13;;;17.59;66.13
39949;BME280;29070;48.102;-1.652;2023-04-28T18:38:47;101369.81;;;17.33;66.26
39949;BME280;29070;48.102;-1.652;2023-04-28T18:43:48;101383.91;;;17.15;66.36
39949;BME280;29070;48.102;-1.652;2023-04-28T18:48:48;101383.69;;;16.99;66.57
39949;BME280;29070;48.102;-1.652;2023-04-28T18:53:48;101391.41;;;16.82;66.96
39949;BME280;29070;48.102;-1.652;2023-04-28T18:58:49;101394.84;;;16.64;67.12
39949;BME280;29070;48.102;-1.652;2023-04-28T19:03:49;101400.03;;;16.52;67.35
39949;BME280;29070;48.102;-1.652;2023-04-28T19:08:51;101407.06;;;16.39;67.36
39949;BME280;29070;48.102;-1.652;2023-04-28T19:13:52;101408.16;;;16.32;67.77
39949;BME280;29070;48.102;-1.652;2023-04-28T19:18:53;101407.59;;;16.23;68.03
39949;BME280;29070;48.102;-1.652;2023-04-28T19:23:53;101412.53;;;16.19;68.26
39949;BME280;29070;48.102;-1.652;2023-04-28T19:28:54;101412.53;;;16.19;68.47
39949;BME280;29070;48.102;-1.652;2023-04-28T19:33:54;101421.59;;;16.05;68.58
39949;BME280;29070;48.102;-1.652;2023-04-28T19:38:55;101421.03;;;15.96;68.72
39949;BME280;29070;48.102;-1.652;2023-04-28T19:43:56;101426.59;;;15.88;68.94
39949;BME280;29070;48.102;-1.652;2023-04-28T19:48:56;101426.66;;;15.75;69.36
39949;BME280;29070;48.102;-1.652;2023-04-28T19:53:57;101427.03;;;15.72;69.39
39949;BME280;29070;48.102;-1.652;2023-04-28T19:58:57;101435.41;;;15.69;69.45
39949;BME280;29070;48.102;-1.652;2023-04-28T20:03:58;101439.56;;;15.51;69.28
39949;BME280;29070;48.102;-1.652;2023-04-28T20:09:00;101441.41;;;15.44;69.70
39949;BME280;29070;48.102;-1.652;2023-04-28T20:14:01;101458.94;;;15.38;69.82
39949;BME280;29070;48.102;-1.652;2023-04-28T20:19:01;101462.19;;;15.34;70.14
39949;BME280;29070;48.102;-1.652;2023-04-28T20:24:01;101464.66;;;15.22;70.37
39949;BME280;29070;48.102;-1.652;2023-04-28T20:29:02;101468.59;;;15.06;70.85
39949;BME280;29070;48.102;-1.652;2023-04-28T20:34:02;101470.38;;;15.12;70.79
39949;BME280;29070;48.102;-1.652;2023-04-28T20:39:03;101469.38;;;15.06;70.69
39949;BME280;29070;48.102;-1.652;2023-04-28T20:44:04;101489.09;;;15.04;70.96
39949;BME280;29070;48.102;-1.652;2023-04-28T20:49:05;101481.41;;;15.02;71.29
39949;BME280;29070;48.102;-1.652;2023-04-28T20:54:07;101481.59;;;15.01;71.10
39949;BME280;29070;48.102;-1.652;2023-04-28T20:59:07;101488.72;;;14.94;71.41
39949;BME280;29070;48.102;-1.652;2023-04-28T21:04:08;101476.53;;;14.93;71.53
39949;BME280;29070;48.102;-1.652;2023-04-28T21:09:08;101494.22;;;14.85;71.31
39949;BME280;29070;48.102;-1.652;2023-04-28T21:14:09;101501.72;;;14.75;71.26
39949;BME280;29070;48.102;-1.652;2023-04-28T21:19:09;101505.41;;;14.67;71.22
39949;BME280;29070;48.102;-1.652;2023-04-28T21:24:10;101497.66;;;14.66;71.57
39949;BME280;29070;48.102;-1.652;2023-04-28T21:29:10;101504.19;;;14.63;71.75
39949;BME280;29070;48.102;-1.652;2023-04-28T21:34:10;101497.22;;;14.49;71.92
39949;BME280;29070;48.102;-1.652;2023-04-28T21:39:11;101505.13;;;14.42;72.01
39949;BME280;29070;48.102;-1.652;2023-04-28T21:44:11;101498.22;;;14.41;72.13
39949;BME280;29070;48.102;-1.652;2023-04-28T21:49:12;101503.31;;;14.43;72.21
39949;BME280;29070;48.102;-1.652;2023-04-28T21:54:13;101514.69;;;14.43;72.29
39949;BME280;29070;48.102;-1.652;2023-04-28T21:59:13;101511.00;;;14.38;72.10
39949;BME280;29070;48.102;-1.652;2023-04-28T22:04:13;101507.53;;;14.30;72.18
39949;BME280;29070;48.102;-1.652;2023-04-28T22:09:14;101513.06;;;14.29;72.31
39949;BME280;29070;48.102;-1.652;2023-04-28T22:14:14;101508.94;;;14.20;72.36
39949;BME280;29070;48.102;-1.652;2023-04-28T22:19:15;101514.81;;;14.08;72.42
39949;BME280;29070;48.102;-1.652;2023-04-28T22:24:16;101517.84;;;14.05;72.49
39949;BME280;29070;48.102;-1.652;2023-04-28T22:29:16;101518.44;;;14.07;72.74
39949;BME280;29070;48.102;-1.652;2023-04-28T22:34:17;101528.44;;;14.12;72.93
39949;BME280;29070;48.102;-1.652;2023-04-28T22:39:18;101529.44;;;14.11;72.73
39949;BME280;29070;48.102;-1.652;2023-04-28T22:44:18;101534.50;;;14.06;72.87
39949;BME280;29070;48.102;-1.652;2023-04-28T22:49:19;101539.97;;;14.04;73.27
39949;BME280;29070;48.102;-1.652;2023-04-28T22:54:24;101530.38;;;13.97;73.28
39949;BME280;29070;48.102;-1.652;2023-04-28T22:59:24;101531.16;;;13.84;73.35
39949;BME280;29070;48.102;-1.652;2023-04-28T23:04:25;101527.47;;;13.78;73.43
39949;BME280;29070;48.102;-1.652;2023-04-28T23:09:25;101530.31;;;13.70;73.77
39949;BME280;29070;48.102;-1.652;2023-04-28T23:14:26;101519.47;;;13.58;73.94
39949;BME280;29070;48.102;-1.652;2023-04-28T23:19:26;101515.44;;;13.62;73.89
39949;BME280;29070;48.102;-1.652;2023-04-28T23:24:26;101510.00;;;13.70;74.00
39949;BME280;29070;48.102;-1.652;2023-04-28T23:29:27;101511.63;;;13.71;74.02
39949;BME280;29070;48.102;-1.652;2023-04-28T23:34:28;101507.13;;;13.65;73.87
39949;BME280;29070;48.102;-1.652;2023-04-28T23:39:28;101514.19;;;13.58;74.09
39949;BME280;29070;48.102;-1.652;2023-04-28T23:44:29;101508.69;;;13.53;74.28
39949;BME280;29070;48.102;-1.652;2023-04-28T23:49:30;101514.09;;;13.38;74.49
39949;BME280;29070;48.102;-1.652;2023-04-28T23:54:30;101520.75;;;13.34;74.45
39949;BME280;29070;48.102;-1.652;2023-04-28T23:59:30;101503.13;;;13.34;74.50
